Delhi, Colorado
Current Conditions -  °F | °C
As of 4:54 PM on Sunday 21 Dec 2014 (Local Time) from KTAD Reporting Station
Clear Clear  
Wind Chill: 45°   Ceiling: Unl
Heat Index: 49°   Visibility: 10mi
Dew Point: 23°   Wind: 10mph
Humidity: 36%   Direction: 320°NW
Pressure: 29.62"   Gusts: NA
Location:  37.5307°N, 104.063°W
Report Text: KTAD 212354Z AUTO 32009KT 10SM CLR 09/M05 A2962 RMK AO2 SLP012 T00941050 10117 20094 55002
Loading
Personal Weather Stations






























Interactive Weather Map New forecast layout! Learn more

10-Day Weather Forecast

Advertisements
Track Severe Weather on mobile